Vision — WDF6306 — position and weather

sailwx.info

Track history (hours):
 
Tides and Currents Weather Stations Pressure Air Temp Water Temp Dewpoint Dewpoint Depression Visibility Wind Speed Wind Dir Waves Ship Positions

Vision

Owner: INTREPID SHIP MANAGEMENT, JACKSONVILLE, FL. More information available from US FCC via Universal Licensing System and Coast Guard Vessel Documentation Center.

Last reported at 2017-Jul-28 00:30 UTC. Time now 2017-Jul-28 00:53 UTC.
Position N 34°37' W 121°56'.

Length 199 m; draft 7.5 m.

Type: Towing. MMSI: 366904000.

Date/timePositionNaut miles runAvg speedWind from/ knotsBaromVisibWave heightAir tempDewpointWater temp
2017-Jul-28 00:30N 34°37' W 121°56'4 8.9
2017-Jul-28 00:00N 34°33' W 121°53'5 9.0
2017-Jul-27 23:30N 34°29' W 121°50'5 9.3
2017-Jul-27 23:00N 34°25' W 121°47'5 9.3
2017-Jul-27 22:30N 34°21' W 121°44'5 9.6
2017-Jul-27 22:00N 34°17' W 121°41'611.5
2017-Jul-27 21:30N 34°12' W 121°38'612.4
2017-Jul-27 21:00N 34°07' W 121°33'612.2
2017-Jul-27 20:30N 34°03' W 121°28'611.9
2017-Jul-27 20:00N 33°60' W 121°22'612.3
2017-Jul-27 19:30N 33°57' W 121°16'612.0
2017-Jul-27 19:00N 33°55' W 121°09'612.1
2017-Jul-27 18:30N 33°52' W 121°02'612.0
2017-Jul-27 18:00N 33°50' W 120°55'611.9
2017-Jul-27 17:30N 33°48' W 120°49'612.0
2017-Jul-27 17:01N 33°45' W 120°42'612.1
2017-Jul-27 16:30N 33°45' W 120°35'612.7
2017-Jul-27 16:00N 33°45' W 120°27'612.9
2017-Jul-27 15:30N 33°44' W 120°20'612.5
2017-Jul-27 15:00N 33°44' W 120°12'1212.0
2017-Jul-27 14:01N 33°44' W 119°58'612.1
2017-Jul-27 13:30N 33°43' W 119°50'611.9
2017-Jul-27 13:00N 33°43' W 119°43'612.3
2017-Jul-27 12:30N 33°43' W 119°36'612.4
2017-Jul-27 12:00N 33°42' W 119°28'612.7
2017-Jul-27 11:31N 33°42' W 119°21'612.4
2017-Jul-27 11:00N 33°41' W 119°13'612.1
2017-Jul-27 10:31N 33°41' W 119°06'611.8
2017-Jul-27 10:00N 33°41' W 118°59'611.9
2017-Jul-27 09:31N 33°40' W 118°52'612.2
2017-Jul-27 09:00N 33°40' W 118°45'612.3
2017-Jul-27 08:30N 33°39' W 118°37'612.6
2017-Jul-27 08:00N 33°39' W 118°30'612.5
2017-Jul-27 07:30N 33°38' W 118°22'611.4
2017-Jul-27 07:00N 33°39' W 118°16'4 7.5
2017-Jul-27 06:30N 33°43' W 118°16'2 4.2
2017-Jul-27 06:00N 33°45' W 118°16'0 0.0
2017-Jul-27 05:29N 33°45' W 118°16'0 0.0
2017-Jul-27 05:00N 33°45' W 118°16'0 0.0
2017-Jul-27 01:43N 33°45' W 118°16'0 0.0
2017-Jul-26 22:16N 33°45' W 118°16'0 0.0
2017-Jul-26 15:39N 33°45' W 118°16'0 0.0
2017-Jul-26 04:12N 33°45' W 118°16'0 0.0
2017-Jul-26 03:49N 33°45' W 118°16'0 0.8
2017-Jul-26 03:30N 33°45' W 118°16'2 4.7
2017-Jul-26 03:00N 33°43' W 118°15'4 8.2
2017-Jul-26 02:30N 33°39' W 118°14'510.3
2017-Jul-26 02:00N 33°36' W 118°19'511.1
2017-Jul-26 01:31N 33°36' W 118°26'611.1
2017-Jul-26 01:00N 33°36' W 118°32'611.3
2017-Jul-26 00:31N 33°36' W 118°39'612.6
2017-Jul-26 00:00N 33°37' W 118°47'713.1
2017-Jul-25 23:31N 33°37' W 118°54'713.1
2017-Jul-25 23:01N 33°38' W 119°02'612.9
2017-Jul-25 22:30N 33°38' W 119°10'612.5
2017-Jul-25 22:01N 33°39' W 119°17'612.6
2017-Jul-25 21:30N 33°39' W 119°25'611.9
2017-Jul-25 21:01N 33°40' W 119°32'611.6
2017-Jul-25 20:30N 33°40' W 119°39'611.9
2017-Jul-25 20:01N 33°41' W 119°46'611.9
2017-Jul-25 19:30N 33°41' W 119°53'611.7
2017-Jul-25 19:00N 33°42' W 120°00'611.7
2017-Jul-25 18:30N 33°43' W 120°07'612.1
2017-Jul-25 17:59N 33°43' W 120°15'612.5
2017-Jul-25 17:30N 33°44' W 120°22'612.0
2017-Jul-25 17:01N 33°44' W 120°29'612.1
2017-Jul-25 16:30N 33°45' W 120°37'612.3
2017-Jul-25 16:00N 33°45' W 120°44'612.2
2017-Jul-25 15:30N 33°47' W 120°51'611.8
2017-Jul-25 15:00N 33°52' W 120°56'1211.8
2017-Jul-25 14:00N 34°01' W 121°05'611.7
2017-Jul-25 13:30N 34°05' W 121°09'611.9
2017-Jul-25 13:01N 34°10' W 121°14'611.5
2017-Jul-25 12:31N 34°14' W 121°18'611.9
2017-Jul-25 12:01N 34°19' W 121°23'712.0
2017-Jul-25 11:27N 34°24' W 121°28'511.4
2017-Jul-25 11:00N 34°28' W 121°32'612.1
2017-Jul-25 10:30N 34°33' W 121°36'612.4
2017-Jul-25 10:00N 34°38' W 121°40'612.4
2017-Jul-25 09:30N 34°43' W 121°44'611.9
2017-Jul-25 09:00N 34°48' W 121°48'611.5
2017-Jul-25 08:28N 34°54' W 121°52'611.8
2017-Jul-25 07:55N 34°59' W 121°56'512.0
2017-Jul-25 07:30N 35°03' W 121°59'711.9
2017-Jul-25 06:57N 35°09' W 122°03'512.3
2017-Jul-25 06:31N 35°14' W 122°07'612.1
2017-Jul-25 06:00N 35°19' W 122°10'611.9
2017-Jul-25 05:28N 35°24' W 122°14'612.5
2017-Jul-25 05:00N 35°30' W 122°18'612.5
2017-Jul-25 04:30N 35°35' W 122°22'712.8
2017-Jul-25 03:58N 35°41' W 122°27'712.8
2017-Jul-25 03:23N 35°47' W 122°31'512.5
2017-Jul-25 03:00N 35°51' W 122°34'712.6
2017-Jul-25 02:29N 35°57' W 122°39'612.4
2017-Jul-25 02:00N 36°01' W 122°43'612.7
2017-Jul-25 01:30N 36°07' W 122°47'713.1
2017-Jul-25 01:00N 36°12' W 122°51'2012.1
2017-Jul-24 23:22N 36°31' W 122°60'512.3
2017-Jul-24 23:00N 36°35' W 123°00'612.1
2017-Jul-24 22:30N 36°41' W 123°01'611.8
2017-Jul-24 22:00N 36°47' W 123°02'611.8
2017-Jul-24 21:30N 36°53' W 123°02'612.0
2017-Jul-24 21:00N 36°59' W 123°02'611.8
2017-Jul-24 20:30N 37°05' W 123°03'611.3
2017-Jul-24 19:59N 37°11' W 123°03'511.2
2017-Jul-24 19:30N 37°16' W 123°03'711.0
2017-Jul-24 18:53N 37°23' W 123°04'16 9.4
2017-Jul-24 17:12N 37°38' W 122°56'210.4
2017-Jul-24 16:58N 37°39' W 122°54'710.6
2017-Jul-24 16:16N 37°44' W 122°46'311.8
2017-Jul-24 16:00N 37°45' W 122°43'18 5.9
2017-Jul-24 12:59N 37°44' W 122°20'0 0.0
2017-Jul-24 12:29N 37°44' W 122°20'0 0.0
2017-Jul-24 11:59N 37°44' W 122°20'0 0.0
2017-Jul-24 11:29N 37°44' W 122°20'0 0.0
2017-Jul-24 10:59N 37°44' W 122°20'0 0.0
2017-Jul-24 10:29N 37°44' W 122°20'0 0.1
2017-Jul-24 09:59N 37°44' W 122°20'0 0.0
2017-Jul-24 09:29N 37°44' W 122°20'0 0.4
2017-Jul-24 08:59N 37°44' W 122°20'0 0.2
2017-Jul-24 08:29N 37°44' W 122°20'0 0.1
2017-Jul-24 07:59N 37°44' W 122°20'0 0.0
2017-Jul-24 07:29N 37°44' W 122°20'0 0.0
2017-Jul-24 06:59N 37°44' W 122°20'1 2.4
2017-Jul-24 06:30N 37°45' W 122°21'510.1
2017-Jul-24 06:00N 37°50' W 122°24'5 9.3
2017-Jul-24 05:30N 37°54' W 122°26'5 8.9
2017-Jul-24 04:58N 37°59' W 122°26'7 9.6
2017-Jul-24 04:16N 38°03' W 122°20'  
2017-Jul-21 19:37N 38°04' W 122°15'110.4
2017-Jul-21 19:30N 38°04' W 122°17'611.8
2017-Jul-21 19:01N 38°01' W 122°24'611.8
2017-Jul-21 18:30N 37°56' W 122°27'510.6
2017-Jul-21 18:00N 37°51' W 122°25'611.4
2017-Jul-21 17:30N 37°48' W 122°31'713.4
2017-Jul-21 17:01N 37°46' W 122°39'510.6
2017-Jul-21 16:30N 37°42' W 122°44'4 8.9
2017-Jul-21 16:01N 37°40' W 122°49'4 8.7
2017-Jul-21 15:30N 37°37' W 122°53'4 8.5
2017-Jul-21 15:01N 37°35' W 122°58'4 8.1
2017-Jul-21 14:30N 37°33' W 123°02'4 7.5
2017-Jul-21 14:00N 37°32' W 123°07'4 8.0
2017-Jul-21 13:31N 37°32' W 123°12'4 7.0
2017-Jul-21 13:00N 37°34' W 123°16'4 8.8
2017-Jul-21 12:31N 37°37' W 123°19'612.2
2017-Jul-21 12:00N 37°42' W 123°24'612.6
2017-Jul-21 11:30N 37°47' W 123°30'612.9
2017-Jul-21 11:01N 37°51' W 123°36'612.1
2017-Jul-21 10:31N 37°55' W 123°41'611.9
2017-Jul-21 10:00N 37°60' W 123°46'611.8
2017-Jul-21 09:29N 38°05' W 123°51'611.9
2017-Jul-21 09:00N 38°09' W 123°56'612.4
2017-Jul-21 08:30N 38°14' W 124°01'812.7
2017-Jul-21 07:51N 38°20' W 124°08'612.6
2017-Jul-21 07:23N 38°25' W 124°12'512.3
2017-Jul-21 06:57N 38°29' W 124°17'612.3
2017-Jul-21 06:30N 38°33' W 124°21'2912.4
2017-Jul-21 04:10N 38°59' W 124°38'412.3
2017-Jul-21 03:51N 39°02' W 124°41'412.3
2017-Jul-21 03:31N 39°06' W 124°43'612.3
2017-Jul-21 03:00N 39°11' W 124°47'28911.9
2017-Jul-20 02:48N 43°56' W 125°52'3412.1
2017-Jul-19 23:59N 44°30' W 125°48'1412.2
2017-Jul-19 22:47N 44°45' W 125°47'2412.2
2017-Jul-19 20:50N 45°08' W 125°52'411.8
2017-Jul-19 20:29N 45°12' W 125°52'712.1
2017-Jul-19 19:55N 45°18' W 125°48'612.2
2017-Jul-19 19:25N 45°24' W 125°46'1112.1
2017-Jul-19 18:29N 45°36' W 125°46'612.1
2017-Jul-19 18:00N 45°42' W 125°46'1012.0
2017-Jul-19 17:09N 45°52' W 125°46'412.4
2017-Jul-19 16:48N 45°56' W 125°45'912.3
2017-Jul-19 16:04N 46°05' W 125°45'212.5
2017-Jul-19 15:55N 46°07' W 125°45'9012.5
2017-Jul-19 08:43N 47°37' W 125°42'1012.2
2017-Jul-19 07:56N 47°46' W 125°37'1412.4
2017-Jul-19 06:49N 47°58' W 125°27'512.4
2017-Jul-19 06:22N 48°03' W 125°24'412.4
2017-Jul-19 06:01N 48°07' W 125°20'612.4
2017-Jul-19 05:29N 48°13' W 125°16'612.2
2017-Jul-19 05:00N 48°18' W 125°12'612.0
2017-Jul-19 04:30N 48°23' W 125°08'611.7
2017-Jul-19 04:00N 48°28' W 125°04'510.6
2017-Jul-19 03:31N 48°31' W 124°57'612.0
2017-Jul-19 03:01N 48°31' W 124°48'712.5
2017-Jul-19 02:28N 48°29' W 124°38'612.6
2017-Jul-19 02:00N 48°27' W 124°30'612.5
2017-Jul-19 01:30N 48°24' W 124°21'612.7
2017-Jul-19 01:00N 48°22' W 124°12'612.6
2017-Jul-19 00:31N 48°19' W 124°04'612.2
2017-Jul-19 00:01N 48°17' W 123°55'612.6
2017-Jul-18 23:31N 48°17' W 123°46'612.7
2017-Jul-18 23:01N 48°16' W 123°36'612.1
2017-Jul-18 22:31N 48°14' W 123°28'612.0
2017-Jul-18 22:00N 48°09' W 123°23'510.1
2017-Jul-18 21:31N 48°10' W 123°16'612.4
2017-Jul-18 21:01N 48°13' W 123°07'612.0
2017-Jul-18 20:31N 48°12' W 122°58'612.3
2017-Jul-18 20:00N 48°11' W 122°49'7 9.9
2017-Jul-18 19:17N 48°07' W 122°40'2 8.0
2017-Jul-18 19:01N 48°05' W 122°39'5 9.7
2017-Jul-18 18:30N 48°01' W 122°37'510.4
2017-Jul-18 18:01N 47°57' W 122°32'511.0
2017-Jul-18 17:31N 47°52' W 122°28'611.9
2017-Jul-18 17:01N 47°46' W 122°26'611.8
2017-Jul-18 16:31N 47°40' W 122°27'611.9
2017-Jul-18 16:01N 47°34' W 122°26'611.7
2017-Jul-18 15:30N 47°29' W 122°24'611.9
2017-Jul-18 15:01N 47°23' W 122°21'7 1.6
2017-Jul-18 10:33N 47°16' W 122°24'0 0.0
2017-Jul-18 10:27N 47°16' W 122°24'0 0.0
2017-Jul-18 09:51N 47°16' W 122°24'0 0.0
2017-Jul-18 07:45N 47°16' W 122°24'0 0.0
2017-Jul-18 07:27N 47°16' W 122°24'0 0.0
2017-Jul-18 05:45N 47°16' W 122°24'  
Track history (hours):
 
Tides and Currents Weather Stations Pressure Air Temp Water Temp Dewpoint Dewpoint Depression Visibility Wind Speed Wind Dir Waves Ship Positions

Vision

Owner: INTREPID SHIP MANAGEMENT, JACKSONVILLE, FL. More information available from US FCC via Universal Licensing System and Coast Guard Vessel Documentation Center.

Last reported at 2017-Jul-28 00:30 UTC. Time now 2017-Jul-28 00:53 UTC.
Position N 34°37' W 121°56'.

Length 199 m; draft 7.5 m.

Type: Towing. MMSI: 366904000.

Date/timePositionNaut miles runAvg speedWind from/ knotsBaromVisibWave heightAir tempDewpointWater temp
2017-Jul-28 00:30N 34°37' W 121°56'4 8.9
2017-Jul-28 00:00N 34°33' W 121°53'5 9.0
2017-Jul-27 23:30N 34°29' W 121°50'5 9.3
2017-Jul-27 23:00N 34°25' W 121°47'5 9.3
2017-Jul-27 22:30N 34°21' W 121°44'5 9.6
2017-Jul-27 22:00N 34°17' W 121°41'611.5
2017-Jul-27 21:30N 34°12' W 121°38'612.4
2017-Jul-27 21:00N 34°07' W 121°33'612.2
2017-Jul-27 20:30N 34°03' W 121°28'611.9
2017-Jul-27 20:00N 33°60' W 121°22'612.3
2017-Jul-27 19:30N 33°57' W 121°16'612.0
2017-Jul-27 19:00N 33°55' W 121°09'612.1
2017-Jul-27 18:30N 33°52' W 121°02'612.0
2017-Jul-27 18:00N 33°50' W 120°55'611.9
2017-Jul-27 17:30N 33°48' W 120°49'612.0
2017-Jul-27 17:01N 33°45' W 120°42'612.1
2017-Jul-27 16:30N 33°45' W 120°35'612.7
2017-Jul-27 16:00N 33°45' W 120°27'612.9
2017-Jul-27 15:30N 33°44' W 120°20'612.5
2017-Jul-27 15:00N 33°44' W 120°12'1212.0
2017-Jul-27 14:01N 33°44' W 119°58'612.1
2017-Jul-27 13:30N 33°43' W 119°50'611.9
2017-Jul-27 13:00N 33°43' W 119°43'612.3
2017-Jul-27 12:30N 33°43' W 119°36'612.4
2017-Jul-27 12:00N 33°42' W 119°28'612.7
2017-Jul-27 11:31N 33°42' W 119°21'612.4
2017-Jul-27 11:00N 33°41' W 119°13'612.1
2017-Jul-27 10:31N 33°41' W 119°06'611.8
2017-Jul-27 10:00N 33°41' W 118°59'611.9
2017-Jul-27 09:31N 33°40' W 118°52'612.2
2017-Jul-27 09:00N 33°40' W 118°45'612.3
2017-Jul-27 08:30N 33°39' W 118°37'612.6
2017-Jul-27 08:00N 33°39' W 118°30'612.5
2017-Jul-27 07:30N 33°38' W 118°22'611.4
2017-Jul-27 07:00N 33°39' W 118°16'4 7.5
2017-Jul-27 06:30N 33°43' W 118°16'2 4.2
2017-Jul-27 06:00N 33°45' W 118°16'0 0.0
2017-Jul-27 05:29N 33°45' W 118°16'0 0.0
2017-Jul-27 05:00N 33°45' W 118°16'0 0.0
2017-Jul-27 01:43N 33°45' W 118°16'0 0.0
2017-Jul-26 22:16N 33°45' W 118°16'0 0.0
2017-Jul-26 15:39N 33°45' W 118°16'0 0.0
2017-Jul-26 04:12N 33°45' W 118°16'0 0.0
2017-Jul-26 03:49N 33°45' W 118°16'0 0.8
2017-Jul-26 03:30N 33°45' W 118°16'2 4.7
2017-Jul-26 03:00N 33°43' W 118°15'4 8.2
2017-Jul-26 02:30N 33°39' W 118°14'510.3
2017-Jul-26 02:00N 33°36' W 118°19'511.1
2017-Jul-26 01:31N 33°36' W 118°26'611.1
2017-Jul-26 01:00N 33°36' W 118°32'611.3
2017-Jul-26 00:31N 33°36' W 118°39'612.6
2017-Jul-26 00:00N 33°37' W 118°47'713.1
2017-Jul-25 23:31N 33°37' W 118°54'713.1
2017-Jul-25 23:01N 33°38' W 119°02'612.9
2017-Jul-25 22:30N 33°38' W 119°10'612.5
2017-Jul-25 22:01N 33°39' W 119°17'612.6
2017-Jul-25 21:30N 33°39' W 119°25'611.9
2017-Jul-25 21:01N 33°40' W 119°32'611.6
2017-Jul-25 20:30N 33°40' W 119°39'611.9
2017-Jul-25 20:01N 33°41' W 119°46'611.9
2017-Jul-25 19:30N 33°41' W 119°53'611.7
2017-Jul-25 19:00N 33°42' W 120°00'611.7
2017-Jul-25 18:30N 33°43' W 120°07'612.1
2017-Jul-25 17:59N 33°43' W 120°15'612.5
2017-Jul-25 17:30N 33°44' W 120°22'612.0
2017-Jul-25 17:01N 33°44' W 120°29'612.1
2017-Jul-25 16:30N 33°45' W 120°37'612.3
2017-Jul-25 16:00N 33°45' W 120°44'612.2
2017-Jul-25 15:30N 33°47' W 120°51'611.8
2017-Jul-25 15:00N 33°52' W 120°56'1211.8
2017-Jul-25 14:00N 34°01' W 121°05'611.7
2017-Jul-25 13:30N 34°05' W 121°09'611.9
2017-Jul-25 13:01N 34°10' W 121°14'611.5
2017-Jul-25 12:31N 34°14' W 121°18'611.9
2017-Jul-25 12:01N 34°19' W 121°23'712.0
2017-Jul-25 11:27N 34°24' W 121°28'511.4
2017-Jul-25 11:00N 34°28' W 121°32'612.1
2017-Jul-25 10:30N 34°33' W 121°36'612.4
2017-Jul-25 10:00N 34°38' W 121°40'612.4
2017-Jul-25 09:30N 34°43' W 121°44'611.9
2017-Jul-25 09:00N 34°48' W 121°48'611.5
2017-Jul-25 08:28N 34°54' W 121°52'611.8
2017-Jul-25 07:55N 34°59' W 121°56'512.0
2017-Jul-25 07:30N 35°03' W 121°59'711.9
2017-Jul-25 06:57N 35°09' W 122°03'512.3
2017-Jul-25 06:31N 35°14' W 122°07'612.1
2017-Jul-25 06:00N 35°19' W 122°10'611.9
2017-Jul-25 05:28N 35°24' W 122°14'612.5
2017-Jul-25 05:00N 35°30' W 122°18'612.5
2017-Jul-25 04:30N 35°35' W 122°22'712.8
2017-Jul-25 03:58N 35°41' W 122°27'712.8
2017-Jul-25 03:23N 35°47' W 122°31'512.5
2017-Jul-25 03:00N 35°51' W 122°34'712.6
2017-Jul-25 02:29N 35°57' W 122°39'612.4
2017-Jul-25 02:00N 36°01' W 122°43'612.7
2017-Jul-25 01:30N 36°07' W 122°47'713.1
2017-Jul-25 01:00N 36°12' W 122°51'2012.1
2017-Jul-24 23:22N 36°31' W 122°60'512.3
2017-Jul-24 23:00N 36°35' W 123°00'612.1
2017-Jul-24 22:30N 36°41' W 123°01'611.8
2017-Jul-24 22:00N 36°47' W 123°02'611.8
2017-Jul-24 21:30N 36°53' W 123°02'612.0
2017-Jul-24 21:00N 36°59' W 123°02'611.8
2017-Jul-24 20:30N 37°05' W 123°03'611.3
2017-Jul-24 19:59N 37°11' W 123°03'511.2
2017-Jul-24 19:30N 37°16' W 123°03'711.0
2017-Jul-24 18:53N 37°23' W 123°04'16 9.4
2017-Jul-24 17:12N 37°38' W 122°56'210.4
2017-Jul-24 16:58N 37°39' W 122°54'710.6
2017-Jul-24 16:16N 37°44' W 122°46'311.8
2017-Jul-24 16:00N 37°45' W 122°43'18 5.9
2017-Jul-24 12:59N 37°44' W 122°20'0 0.0
2017-Jul-24 12:29N 37°44' W 122°20'0 0.0
2017-Jul-24 11:59N 37°44' W 122°20'0 0.0
2017-Jul-24 11:29N 37°44' W 122°20'0 0.0
2017-Jul-24 10:59N 37°44' W 122°20'0 0.0
2017-Jul-24 10:29N 37°44' W 122°20'0 0.1
2017-Jul-24 09:59N 37°44' W 122°20'0 0.0
2017-Jul-24 09:29N 37°44' W 122°20'0 0.4
2017-Jul-24 08:59N 37°44' W 122°20'0 0.2
2017-Jul-24 08:29N 37°44' W 122°20'0 0.1
2017-Jul-24 07:59N 37°44' W 122°20'0 0.0
2017-Jul-24 07:29N 37°44' W 122°20'0 0.0
2017-Jul-24 06:59N 37°44' W 122°20'1 2.4
2017-Jul-24 06:30N 37°45' W 122°21'510.1
2017-Jul-24 06:00N 37°50' W 122°24'5 9.3
2017-Jul-24 05:30N 37°54' W 122°26'5 8.9
2017-Jul-24 04:58N 37°59' W 122°26'7 9.6
2017-Jul-24 04:16N 38°03' W 122°20'  
2017-Jul-21 19:37N 38°04' W 122°15'110.4
2017-Jul-21 19:30N 38°04' W 122°17'611.8
2017-Jul-21 19:01N 38°01' W 122°24'611.8
2017-Jul-21 18:30N 37°56' W 122°27'510.6
2017-Jul-21 18:00N 37°51' W 122°25'611.4
2017-Jul-21 17:30N 37°48' W 122°31'713.4
2017-Jul-21 17:01N 37°46' W 122°39'510.6
2017-Jul-21 16:30N 37°42' W 122°44'4 8.9
2017-Jul-21 16:01N 37°40' W 122°49'4 8.7
2017-Jul-21 15:30N 37°37' W 122°53'4 8.5
2017-Jul-21 15:01N 37°35' W 122°58'4 8.1
2017-Jul-21 14:30N 37°33' W 123°02'4 7.5
2017-Jul-21 14:00N 37°32' W 123°07'4 8.0
2017-Jul-21 13:31N 37°32' W 123°12'4 7.0
2017-Jul-21 13:00N 37°34' W 123°16'4 8.8
2017-Jul-21 12:31N 37°37' W 123°19'612.2
2017-Jul-21 12:00N 37°42' W 123°24'612.6
2017-Jul-21 11:30N 37°47' W 123°30'612.9
2017-Jul-21 11:01N 37°51' W 123°36'612.1
2017-Jul-21 10:31N 37°55' W 123°41'611.9
2017-Jul-21 10:00N 37°60' W 123°46'611.8
2017-Jul-21 09:29N 38°05' W 123°51'611.9
2017-Jul-21 09:00N 38°09' W 123°56'612.4
2017-Jul-21 08:30N 38°14' W 124°01'812.7
2017-Jul-21 07:51N 38°20' W 124°08'612.6
2017-Jul-21 07:23N 38°25' W 124°12'512.3
2017-Jul-21 06:57N 38°29' W 124°17'612.3
2017-Jul-21 06:30N 38°33' W 124°21'2912.4
2017-Jul-21 04:10N 38°59' W 124°38'412.3
2017-Jul-21 03:51N 39°02' W 124°41'412.3
2017-Jul-21 03:31N 39°06' W 124°43'612.3
2017-Jul-21 03:00N 39°11' W 124°47'28911.9
2017-Jul-20 02:48N 43°56' W 125°52'3412.1
2017-Jul-19 23:59N 44°30' W 125°48'1412.2
2017-Jul-19 22:47N 44°45' W 125°47'2412.2
2017-Jul-19 20:50N 45°08' W 125°52'411.8
2017-Jul-19 20:29N 45°12' W 125°52'712.1
2017-Jul-19 19:55N 45°18' W 125°48'612.2
2017-Jul-19 19:25N 45°24' W 125°46'1112.1
2017-Jul-19 18:29N 45°36' W 125°46'612.1
2017-Jul-19 18:00N 45°42' W 125°46'1012.0
2017-Jul-19 17:09N 45°52' W 125°46'412.4
2017-Jul-19 16:48N 45°56' W 125°45'912.3
2017-Jul-19 16:04N 46°05' W 125°45'212.5
2017-Jul-19 15:55N 46°07' W 125°45'9012.5
2017-Jul-19 08:43N 47°37' W 125°42'1012.2
2017-Jul-19 07:56N 47°46' W 125°37'1412.4
2017-Jul-19 06:49N 47°58' W 125°27'512.4
2017-Jul-19 06:22N 48°03' W 125°24'412.4
2017-Jul-19 06:01N 48°07' W 125°20'612.4
2017-Jul-19 05:29N 48°13' W 125°16'612.2
2017-Jul-19 05:00N 48°18' W 125°12'612.0
2017-Jul-19 04:30N 48°23' W 125°08'611.7
2017-Jul-19 04:00N 48°28' W 125°04'510.6
2017-Jul-19 03:31N 48°31' W 124°57'612.0
2017-Jul-19 03:01N 48°31' W 124°48'712.5
2017-Jul-19 02:28N 48°29' W 124°38'612.6
2017-Jul-19 02:00N 48°27' W 124°30'612.5
2017-Jul-19 01:30N 48°24' W 124°21'612.7
2017-Jul-19 01:00N 48°22' W 124°12'612.6
2017-Jul-19 00:31N 48°19' W 124°04'612.2
2017-Jul-19 00:01N 48°17' W 123°55'612.6
2017-Jul-18 23:31N 48°17' W 123°46'612.7
2017-Jul-18 23:01N 48°16' W 123°36'612.1
2017-Jul-18 22:31N 48°14' W 123°28'612.0
2017-Jul-18 22:00N 48°09' W 123°23'510.1
2017-Jul-18 21:31N 48°10' W 123°16'612.4
2017-Jul-18 21:01N 48°13' W 123°07'612.0
2017-Jul-18 20:31N 48°12' W 122°58'612.3
2017-Jul-18 20:00N 48°11' W 122°49'7 9.9
2017-Jul-18 19:17N 48°07' W 122°40'2 8.0
2017-Jul-18 19:01N 48°05' W 122°39'5 9.7
2017-Jul-18 18:30N 48°01' W 122°37'510.4
2017-Jul-18 18:01N 47°57' W 122°32'511.0
2017-Jul-18 17:31N 47°52' W 122°28'611.9
2017-Jul-18 17:01N 47°46' W 122°26'611.8
2017-Jul-18 16:31N 47°40' W 122°27'611.9
2017-Jul-18 16:01N 47°34' W 122°26'611.7
2017-Jul-18 15:30N 47°29' W 122°24'611.9
2017-Jul-18 15:01N 47°23' W 122°21'7 1.6
2017-Jul-18 10:33N 47°16' W 122°24'0 0.0
2017-Jul-18 10:27N 47°16' W 122°24'0 0.0
2017-Jul-18 09:51N 47°16' W 122°24'0 0.0
2017-Jul-18 07:45N 47°16' W 122°24'0 0.0
2017-Jul-18 07:27N 47°16' W 122°24'0 0.0
2017-Jul-18 05:45N 47°16' W 122°24'  

Dump ship's entire track history